Time;durP1;ratioP1;P1;durP2;ratioP2;P2;SDS_P1;SDS_P2;PMS_P1;PMS_P2;Temp;Humidity;BMP_temperature;BMP_pressure;BME280_temperature;BME280_humidity;BME280_pressure;Samples;Min_cycle;Max_cycle;Signal;HPM_P1;HPM_P2
2023/07/03 00:02:40;;;;;;;;;;;22.80;75.50;;;;;;10576216;27;20146;-34
2023/07/03 00:07:46;;;;;;;24.23;5.07;;;23.30;70.10;;;;;;10575490;27;20356;-35
2023/07/03 00:12:48;;;;;;;19.75;4.65;;;23.90;67.00;;;;;;10572652;27;20134;-39
2023/07/03 00:17:50;;;;;;;20.88;4.53;;;23.80;65.80;;;;;;10580052;27;20055;-37
2023/07/03 00:22:54;;;;;;;30.23;5.40;;;21.50;82.50;;;;;;10557918;27;20142;-35
2023/07/03 00:27:56;;;;;;;22.33;4.40;;;21.40;83.90;;;;;;10579088;27;20404;-32
2023/07/03 00:32:58;;;;;;;;;;;20.60;90.60;;;;;;10576529;27;20047;-34
2023/07/03 00:38:01;;;;;;;21.13;3.85;;;22.40;76.80;;;;;;10577748;27;19962;-33
2023/07/03 00:43:03;;;;;;;18.77;4.90;;;20.50;89.40;;;;;;10561881;27;20044;-34
2023/07/03 00:48:06;;;;;;;27.73;3.97;;;20.30;91.30;;;;;;10564473;27;20396;-34
2023/07/03 00:53:10;;;;;;;25.60;4.68;;;20.20;90.60;;;;;;10569158;27;20511;-37
2023/07/03 00:58:12;;;;;;;25.35;5.90;;;20.50;89.30;;;;;;10572431;27;20083;-32
2023/07/03 01:03:24;;;;;;;30.42;8.43;;;19.80;89.90;;;;;;10567552;27;20443;-33
2023/07/03 01:08:28;;;;;;;19.85;7.03;;;21.50;80.10;;;;;;10569798;27;20048;-33
2023/07/03 01:13:31;;;;;;;23.90;4.32;;;21.00;82.60;;;;;;10558943;27;20139;-33
2023/07/03 01:18:34;;;;;;;16.38;3.53;;;20.60;81.70;;;;;;10563757;27;20043;-35
2023/07/03 01:23:43;;;;;;;11.43;4.07;;;21.00;67.20;;;;;;10575439;27;20123;-34
2023/07/03 01:29:00;;;;;;;14.43;3.08;;;20.60;69.20;;;;;;10570420;27;20046;-33
2023/07/03 01:34:03;;;;;;;15.50;4.10;;;20.10;82.40;;;;;;10554086;27;20085;-33
2023/07/03 01:39:06;;;;;;;7.53;2.75;;;21.20;71.80;;;;;;10562080;27;20090;-35
2023/07/03 01:44:09;;;;;;;13.50;2.58;;;20.40;77.50;;;;;;10571496;27;20140;-33
2023/07/03 01:49:13;;;;;;;12.75;3.13;;;20.30;74.00;;;;;;10567770;28;20127;-32
2023/07/03 01:54:26;;;;;;;7.95;2.75;;;20.90;75.00;;;;;;10560004;27;20048;-32
2023/07/03 01:59:31;;;;;;;11.02;3.10;;;19.90;65.50;;;;;;10568655;27;20108;-33
2023/07/03 02:04:36;;;;;;;8.52;2.10;;;20.70;62.80;;;;;;10573056;27;20070;-33
2023/07/03 02:09:39;;;;;;;9.98;1.85;;;21.20;66.40;;;;;;10573033;27;20428;-35
2023/07/03 02:14:43;;;;;;;6.50;2.10;;;20.50;66.30;;;;;;10562347;28;20515;-34
2023/07/03 02:19:44;;;;;;;3.88;1.65;;;20.10;67.30;;;;;;10573436;28;20138;-35
2023/07/03 02:24:46;;;;;;;6.47;1.60;;;21.30;58.80;;;;;;10571319;27;20455;-33
2023/07/03 02:29:49;;;;;;;10.45;1.98;;;20.70;67.80;;;;;;10574929;27;20147;-37
2023/07/03 02:34:51;;;;;;;5.25;1.55;;;20.50;67.90;;;;;;10575676;27;20064;-32
2023/07/03 02:39:53;;;;;;;8.07;1.50;;;20.30;70.90;;;;;;10568426;27;20116;-33
2023/07/03 02:44:57;;;;;;;20.15;2.85;;;19.40;81.50;;;;;;10563489;28;20119;-33
2023/07/03 02:49:59;;;;;;;9.48;1.70;;;19.40;66.60;;;;;;10561463;28;20048;-38
2023/07/03 02:55:01;;;;;;;6.25;1.77;;;19.00;82.00;;;;;;10571172;27;20044;-39
2023/07/03 03:15:34;;;;;;;6.30;1.40;;;19.40;61.80;;;;;;10504994;27;20835;-34
2023/07/03 03:20:36;;;;;;;11.55;1.95;;;19.30;70.60;;;;;;10497135;28;20159;-35
2023/07/03 03:25:38;;;;;;;7.47;1.88;;;19.50;71.00;;;;;;10495845;28;20511;-33
2023/07/03 03:30:44;;;;;;;11.05;2.13;;;19.90;69.90;;;;;;10486597;28;20115;-34
2023/07/03 03:35:46;;;;;;;5.88;1.48;;;20.00;67.70;;;;;;10476897;28;20547;-34
2023/07/03 03:40:54;;;;;;;12.05;2.10;;;20.50;69.10;;;;;;10496972;28;20052;-34
2023/07/03 03:45:59;;;;;;;12.88;1.80;;;19.50;74.20;;;;;;10492055;28;20128;-32
2023/07/03 03:51:01;;;;;;;6.55;1.35;;;19.10;76.40;;;;;;10482919;28;20052;-33
2023/07/03 03:56:03;;;;;;;7.60;2.00;;;20.60;71.80;;;;;;10481225;28;20044;-37
2023/07/03 04:01:06;;;;;;;12.82;2.05;;;21.00;63.80;;;;;;10488716;28;20128;-38
2023/07/03 04:06:09;;;;;;;3.42;1.65;;;19.40;64.50;;;;;;10467597;28;20052;-38
2023/07/03 04:11:11;;;;;;;9.18;1.58;;;20.20;69.70;;;;;;10481390;28;20099;-37
2023/07/03 04:16:14;;;;;;;3.28;1.15;;;20.60;65.50;;;;;;10480515;28;20055;-38
2023/07/03 04:21:16;;;;;;;7.47;1.58;;;19.60;76.40;;;;;;10491985;28;20545;-32
2023/07/03 04:26:18;;;;;;;3.47;1.00;;;20.60;62.50;;;;;;10465390;28;20045;-36
2023/07/03 04:31:21;;;;;;;8.52;1.20;;;21.00;68.80;;;;;;10461034;28;20049;-33
2023/07/03 04:36:23;;;;;;;6.40;1.50;;;21.20;66.90;;;;;;10469717;28;20078;-33
2023/07/03 04:41:26;;;;;;;;;;;19.50;64.10;;;;;;10460121;28;20045;-34
2023/07/03 04:46:30;;;;;;;7.20;1.58;;;20.10;71.40;;;;;;10454173;28;19947;-34
2023/07/03 04:51:32;;;;;;;4.20;1.52;;;21.50;65.80;;;;;;10453981;28;20576;-32
2023/07/03 04:56:35;;;;;;;4.45;1.40;;;21.40;67.00;;;;;;10443836;28;20053;-34
2023/07/03 05:01:42;;;;;;;7.45;1.45;;;20.70;72.10;;;;;;10455912;28;20126;-35
2023/07/03 05:06:46;;;;;;;6.55;1.42;;;20.70;68.60;;;;;;10452774;28;20136;-36
2023/07/03 05:11:48;;;;;;;14.57;2.33;;;19.90;67.10;;;;;;10457353;28;20424;-33
2023/07/03 05:16:51;;;;;;;7.05;1.85;;;18.20;81.80;;;;;;10453075;28;20052;-33
2023/07/03 05:21:53;;;;;;;12.52;2.78;;;20.30;66.50;;;;;;10459869;28;20653;-33
2023/07/03 05:26:56;;;;;;;9.27;1.60;;;20.00;76.00;;;;;;10457562;28;20472;-34
2023/07/03 05:32:00;;;;;;;;;;;20.70;70.80;;;;;;10461139;28;20457;-33
2023/07/03 05:37:01;;;;;;;11.50;1.88;;;20.00;64.20;;;;;;10462485;28;19924;-32
2023/07/03 05:42:04;;;;;;;8.43;1.92;;;19.00;74.80;;;;;;10467511;28;20052;-32
2023/07/03 05:47:07;;;;;;;;;;;19.90;68.60;;;;;;10462490;28;20478;-32
2023/07/03 05:52:09;;;;;;;10.25;1.65;;;21.00;66.20;;;;;;10467634;28;19934;-36
2023/07/03 05:57:13;;;;;;;7.93;1.80;;;19.70;73.00;;;;;;10463486;28;20071;-32
2023/07/03 06:02:16;;;;;;;14.43;2.65;;;20.40;65.40;;;;;;10443160;28;20529;-34
2023/07/03 06:07:18;;;;;;;9.75;2.35;;;19.10;75.10;;;;;;10442599;28;20049;-36
2023/07/03 06:12:20;;;;;;;8.93;1.65;;;19.50;75.30;;;;;;10439545;28;20052;-33
2023/07/03 06:17:23;;;;;;;11.90;2.15;;;19.60;74.60;;;;;;10452167;28;20045;-33
2023/07/03 06:22:26;;;;;;;12.93;2.17;;;19.30;77.30;;;;;;10437082;28;20049;-34
2023/07/03 06:27:28;;;;;;;9.07;1.98;;;19.90;72.10;;;;;;10436532;28;20048;-35
2023/07/03 06:32:31;;;;;;;8.60;2.13;;;20.00;73.70;;;;;;10439172;28;20486;-34
2023/07/03 06:37:33;;;;;;;5.15;1.75;;;19.60;72.30;;;;;;10439213;28;20448;-34
2023/07/03 06:42:35;;;;;;;5.25;1.30;;;19.10;71.90;;;;;;10440224;28;20135;-35
2023/07/03 06:47:38;;;;;;;9.52;1.80;;;18.70;77.80;;;;;;10437811;28;20452;-33
2023/07/03 06:52:43;;;;;;;15.32;1.92;;;19.70;72.40;;;;;;10438580;28;20114;-33
2023/07/03 06:57:44;;;;;;;11.77;1.95;;;19.30;77.80;;;;;;10438061;28;20076;-37
2023/07/03 07:02:48;;;;;;;9.05;1.70;;;19.30;76.00;;;;;;10435328;28;20146;-33
2023/07/03 07:07:49;;;;;;;9.05;1.85;;;19.40;78.30;;;;;;10436716;28;20151;-33
2023/07/03 07:12:51;;;;;;;10.95;1.70;;;19.00;76.20;;;;;;10429588;28;20822;-31
2023/07/03 07:17:57;;;;;;;8.65;1.45;;;18.70;82.00;;;;;;10437583;28;20132;-33
2023/07/03 07:22:59;;;;;;;5.30;1.52;;;20.10;74.60;;;;;;10437492;28;20045;-33
2023/07/03 07:28:01;;;;;;;12.85;1.83;;;19.40;79.50;;;;;;10436314;28;20148;-33
2023/07/03 07:33:04;;;;;;;;;;;18.60;83.20;;;;;;10434063;28;20147;-36
2023/07/03 07:38:06;;;;;;;8.15;1.50;;;18.50;84.30;;;;;;10431044;28;19990;-35
2023/07/03 07:43:08;;;;;;;10.85;1.67;;;19.80;74.60;;;;;;10441601;28;20398;-35
2023/07/03 07:48:11;;;;;;;19.80;3.38;;;19.20;76.10;;;;;;10435708;28;20138;-33
2023/07/03 07:53:13;;;;;;;10.05;1.48;;;18.60;79.60;;;;;;10437523;28;20470;-35
2023/07/03 07:58:16;;;;;;;10.18;1.92;;;19.00;79.10;;;;;;10433860;28;20127;-35
2023/07/03 08:03:19;;;;;;;14.60;2.00;;;19.20;76.00;;;;;;10442912;28;20102;-34
2023/07/03 08:08:21;;;;;;;10.23;1.92;;;19.40;79.00;;;;;;10444518;28;20059;-33
2023/07/03 08:13:23;;;;;;;16.42;1.83;;;19.20;80.20;;;;;;10449973;28;20087;-34
2023/07/03 08:18:26;;;;;;;;;;;18.70;84.70;;;;;;10477802;28;20075;-34
2023/07/03 08:23:29;;;;;;;10.73;2.10;;;19.30;75.80;;;;;;10462270;28;19925;-33
2023/07/03 08:28:31;;;;;;;17.42;2.58;;;19.10;80.40;;;;;;10454589;28;20040;-36
2023/07/03 08:33:34;;;;;;;8.55;2.13;;;19.10;78.80;;;;;;10453706;28;20081;-37
2023/07/03 08:38:36;;;;;;;9.85;2.20;;;19.00;82.80;;;;;;10453412;28;20098;-34
2023/07/03 08:43:42;;;;;;;12.73;2.25;;;19.50;79.60;;;;;;10461703;28;20068;-30
2023/07/03 08:48:47;;;;;;;13.77;3.35;;;19.10;78.70;;;;;;10467775;28;20067;-35
2023/07/03 08:53:53;;;;;;;11.25;2.40;;;19.40;79.70;;;;;;10461948;28;20044;-33
2023/07/03 08:58:56;;;;;;;11.05;2.22;;;19.50;80.00;;;;;;10474535;28;20079;-35
2023/07/03 09:04:09;;;;;;;16.90;2.95;;;19.20;81.60;;;;;;10460035;28;20114;-34
2023/07/03 09:09:18;;;;;;;9.52;2.05;;;18.70;86.70;;;;;;10450184;28;20319;-35
2023/07/03 09:14:24;;;;;;;15.18;2.47;;;19.40;79.60;;;;;;10452265;28;20440;-35
2023/07/03 09:19:29;;;;;;;7.90;2.20;;;19.20;80.70;;;;;;10456330;28;20080;-35
2023/07/03 09:24:37;;;;;;;11.52;2.40;;;19.80;80.20;;;;;;10453987;28;20052;-39
2023/07/03 09:29:40;;;;;;;14.32;2.90;;;19.20;82.80;;;;;;10454787;28;20626;-34
2023/07/03 09:35:02;;;;;;;13.95;2.63;;;19.10;86.30;;;;;;10453705;28;20148;-32
2023/07/03 09:40:09;;;;;;;11.20;2.55;;;19.20;84.10;;;;;;10461408;28;20072;-33
2023/07/03 09:45:16;;;;;;;11.50;2.35;;;19.90;76.40;;;;;;10459880;28;20120;-34
2023/07/03 09:50:25;;;;;;;8.98;2.63;;;20.00;75.90;;;;;;10448501;28;20434;-33
2023/07/03 09:55:27;;;;;;;9.57;2.55;;;19.90;73.50;;;;;;10467317;28;20140;-34
2023/07/03 10:00:29;;;;;;;;;;;19.50;75.10;;;;;;10453076;28;20080;-35
2023/07/03 10:05:34;;;;;;;14.25;2.53;;;19.50;74.90;;;;;;10466329;28;20353;-33
2023/07/03 10:10:36;;;;;;;11.45;2.13;;;19.40;74.30;;;;;;10452039;28;20148;-35
2023/07/03 10:15:40;;;;;;;8.85;2.03;;;19.50;73.20;;;;;;10445949;28;20084;-35
2023/07/03 10:20:47;;;;;;;15.13;2.03;;;19.00;76.70;;;;;;10444217;28;20073;-35
2023/07/03 10:25:53;;;;;;;17.17;2.80;;;19.80;68.10;;;;;;10457546;28;20126;-37
2023/07/03 10:30:59;;;;;;;6.22;2.13;;;19.70;73.00;;;;;;10449776;28;20055;-33
2023/07/03 10:36:06;;;;;;;13.90;1.90;;;20.40;69.20;;;;;;10465614;28;20159;-33
2023/07/03 10:41:12;;;;;;;9.63;1.63;;;19.70;75.80;;;;;;10463865;28;20068;-35
2023/07/03 10:46:21;;;;;;;6.82;2.40;;;19.70;77.60;;;;;;10456730;28;20103;-34
2023/07/03 10:51:35;;;;;;;6.20;1.50;;;19.60;73.20;;;;;;10443266;28;20423;-34
2023/07/03 10:56:42;;;;;;;8.00;1.40;;;19.70;68.00;;;;;;10447306;28;20477;-36
2023/07/03 11:01:51;;;;;;;12.40;1.17;;;19.10;69.10;;;;;;10446953;28;20088;-31
2023/07/03 11:07:04;;;;;;;6.03;1.27;;;19.90;70.90;;;;;;10445238;28;20106;-35
2023/07/03 11:12:14;;;;;;;14.98;1.75;;;19.60;67.90;;;;;;10445355;28;20051;-40
2023/07/03 11:17:22;;;;;;;17.27;2.20;;;20.10;67.60;;;;;;10446788;28;20048;-32
2023/07/03 11:22:32;;;;;;;12.93;2.20;;;19.70;73.50;;;;;;10446055;28;20045;-33
2023/07/03 11:27:38;;;;;;;9.85;1.30;;;18.90;73.60;;;;;;10446803;28;20040;-33
2023/07/03 11:32:41;;;;;;;8.35;1.38;;;19.00;78.30;;;;;;10452210;28;20053;-35
2023/07/03 11:37:49;;;;;;;11.00;1.83;;;18.90;74.20;;;;;;10453952;28;20063;-34
2023/07/03 11:43:15;;;;;;;7.55;1.95;;;20.40;69.90;;;;;;10455492;28;20057;-36
2023/07/03 11:48:27;;;;;;;11.63;2.90;;;20.10;68.30;;;;;;10458258;28;20056;-41
2023/07/03 11:53:33;;;;;;;;;;;20.30;66.90;;;;;;10461878;28;20486;-38
2023/07/03 11:58:35;;;;;;;6.53;1.23;;;20.40;64.80;;;;;;10469104;28;20318;-39
2023/07/03 12:03:50;;;;;;;6.93;1.45;;;20.40;68.60;;;;;;10461449;28;20168;-42
2023/07/03 12:08:52;;;;;;;10.40;1.33;;;19.90;63.30;;;;;;10470819;28;20049;-38
2023/07/03 12:13:54;;;;;;;11.88;1.60;;;20.00;69.50;;;;;;10457616;28;20060;-38
2023/07/03 12:19:01;;;;;;;6.95;1.27;;;20.20;63.80;;;;;;10451941;28;20072;-38
2023/07/03 12:24:16;;;;;;;3.72;1.48;;;20.40;68.60;;;;;;10441395;28;20057;-32
2023/07/03 12:29:19;;;;;;;3.03;0.95;;;20.40;67.30;;;;;;10450684;28;20080;-39
2023/07/03 12:34:26;;;;;;;4.43;1.30;;;20.40;70.00;;;;;;10455289;28;20045;-39
2023/07/03 12:39:28;;;;;;;12.15;1.80;;;20.20;72.30;;;;;;10437261;28;20508;-41
2023/07/03 12:44:30;;;;;;;8.18;1.63;;;19.40;74.80;;;;;;10449472;28;20084;-36
2023/07/03 12:49:33;;;;;;;7.60;1.65;;;19.80;70.80;;;;;;10452456;28;20048;-35
2023/07/03 12:54:35;;;;;;;6.00;1.15;;;21.00;63.40;;;;;;10457303;28;20140;-33
2023/07/03 12:59:37;;;;;;;12.75;1.60;;;21.00;62.60;;;;;;10443697;28;20055;-35
2023/07/03 13:04:40;;;;;;;13.27;1.20;;;20.00;63.20;;;;;;10449828;28;20057;-33
2023/07/03 13:09:43;;;;;;;7.38;1.00;;;20.40;65.90;;;;;;10450945;28;20513;-33
2023/07/03 13:15:00;;;;;;;9.23;1.77;;;21.30;62.90;;;;;;10449800;28;20067;-33
2023/07/03 13:20:18;;;;;;;15.23;1.77;;;20.20;64.50;;;;;;10456211;28;20072;-33
2023/07/03 13:25:42;;;;;;;9.18;1.42;;;20.20;71.50;;;;;;10455011;28;20743;-33
2023/07/03 13:30:44;;;;;;;6.72;1.73;;;21.50;67.00;;;;;;10442120;28;20053;-36
2023/07/03 13:35:48;;;;;;;8.18;1.90;;;21.40;64.80;;;;;;10453859;28;20080;-33
2023/07/03 13:40:51;;;;;;;11.65;1.90;;;21.30;64.10;;;;;;10452044;28;20139;-36
2023/07/03 13:45:55;;;;;;;3.40;1.40;;;20.60;64.90;;;;;;10449613;28;20422;-39
2023/07/03 13:50:58;;;;;;;10.27;2.60;;;21.10;69.40;;;;;;10451446;28;20136;-34
2023/07/03 13:56:00;;;;;;;8.60;1.33;;;21.40;67.90;;;;;;10453180;28;20089;-36
2023/07/03 14:01:02;;;;;;;14.88;1.83;;;20.50;72.40;;;;;;10451178;28;20466;-33
2023/07/03 14:06:06;;;;;;;;;;;20.00;74.00;;;;;;10441310;28;20045;-33
2023/07/03 14:11:10;;;;;;;27.33;2.45;;;20.20;74.00;;;;;;10446916;28;20274;-36
2023/07/03 14:16:12;;;;;;;19.40;2.55;;;20.90;69.30;;;;;;10450439;28;20045;-33
2023/07/03 14:21:17;;;;;;;12.30;2.63;;;22.00;62.70;;;;;;10454975;28;20095;-33
2023/07/03 14:26:19;;;;;;;15.38;2.00;;;21.10;67.70;;;;;;10452744;28;20136;-36
2023/07/03 14:31:20;;;;;;;13.43;2.83;;;22.00;64.60;;;;;;10449746;28;20053;-33
2023/07/03 14:36:24;;;;;;;13.05;1.70;;;22.00;66.00;;;;;;10448467;28;20136;-34
2023/07/03 14:41:26;;;;;;;17.92;2.20;;;21.50;64.30;;;;;;10459458;28;20106;-35
2023/07/03 14:46:28;;;;;;;12.75;2.78;;;21.80;71.40;;;;;;10459310;28;20077;-39
2023/07/03 14:51:31;;;;;;;12.55;2.20;;;22.50;70.20;;;;;;10460136;28;20084;-34
2023/07/03 14:56:33;;;;;;;10.15;2.17;;;22.00;67.80;;;;;;10454262;28;20144;-34
2023/07/03 15:01:35;;;;;;;12.57;2.83;;;22.50;61.70;;;;;;10444667;28;20676;-35
2023/07/03 15:06:39;;;;;;;12.32;2.13;;;22.60;64.60;;;;;;10442235;28;20037;-35
2023/07/03 15:11:41;;;;;;;16.40;3.70;;;22.60;64.80;;;;;;10449457;28;20148;-38
2023/07/03 15:16:43;;;;;;;11.38;2.30;;;21.80;73.00;;;;;;10441528;28;20147;-34
2023/07/03 15:21:46;;;;;;;16.05;3.22;;;22.40;70.20;;;;;;10438227;28;20111;-34
2023/07/03 15:26:48;;;;;;;13.13;3.10;;;22.40;73.00;;;;;;10448502;28;20140;-34
2023/07/03 15:31:50;;;;;;;18.20;2.40;;;22.10;71.00;;;;;;10443999;28;20508;-37
2023/07/03 15:36:54;;;;;;;17.15;2.85;;;22.30;64.40;;;;;;10456707;28;20085;-35
2023/07/03 15:41:56;;;;;;;10.68;2.60;;;22.60;63.80;;;;;;10447347;28;20072;-34
2023/07/03 15:46:58;;;;;;;17.02;2.80;;;23.00;63.40;;;;;;10438697;28;20087;-35
2023/07/03 15:52:01;;;;;;;11.88;2.15;;;23.40;62.40;;;;;;10440753;28;20055;-38
2023/07/03 15:57:03;;;;;;;8.00;2.15;;;23.30;62.20;;;;;;10431617;28;20060;-39
2023/07/03 16:02:06;;;;;;;10.88;2.80;;;24.00;60.30;;;;;;10451079;28;20045;-35
2023/07/03 16:07:09;;;;;;;20.33;3.42;;;23.70;58.40;;;;;;10441889;28;20120;-35
2023/07/03 16:12:13;;;;;;;14.32;3.28;;;23.60;56.60;;;;;;10454295;28;20520;-34
2023/07/03 16:17:16;;;;;;;15.27;3.03;;;23.30;59.80;;;;;;10441247;28;20497;-33
2023/07/03 16:22:19;;;;;;;11.77;2.45;;;23.10;58.90;;;;;;10446510;28;20068;-35
2023/07/03 16:27:21;;;;;;;8.07;2.35;;;24.10;57.40;;;;;;10451696;28;20049;-36
2023/07/03 16:32:23;;;;;;;13.43;2.65;;;23.40;58.90;;;;;;10455032;28;20130;-35
2023/07/03 16:37:26;;;;;;;13.35;3.15;;;22.40;61.90;;;;;;10448017;28;20049;-34
2023/07/03 16:42:28;;;;;;;18.08;3.05;;;21.80;68.70;;;;;;10453857;28;20106;-36
2023/07/03 16:47:30;;;;;;;15.73;2.67;;;22.30;68.50;;;;;;10459831;28;20451;-34
2023/07/03 16:52:33;;;;;;;22.13;3.38;;;22.30;73.70;;;;;;10457132;28;20112;-38
2023/07/03 16:57:35;;;;;;;13.68;3.05;;;23.80;64.20;;;;;;10454200;28;20485;-35
2023/07/03 17:02:37;;;;;;;19.67;3.55;;;23.10;67.90;;;;;;10453551;28;20064;-33
2023/07/03 17:07:41;;;;;;;12.45;3.63;;;21.90;65.60;;;;;;10447395;28;20091;-35
2023/07/03 17:12:43;;;;;;;18.73;3.60;;;22.50;68.00;;;;;;10454045;28;20494;-33
2023/07/03 17:17:45;;;;;;;17.65;3.42;;;21.70;67.50;;;;;;10452913;28;20057;-38
2023/07/03 17:22:48;;;;;;;12.88;2.25;;;21.50;68.90;;;;;;10454103;28;20052;-34
2023/07/03 17:27:51;;;;;;;29.45;3.78;;;22.10;64.70;;;;;;10450706;28;20516;-36
2023/07/03 17:32:53;;;;;;;10.40;2.70;;;21.00;72.60;;;;;;10450878;28;20580;-34
2023/07/03 17:37:57;;;;;;;13.32;2.38;;;22.60;66.10;;;;;;10455422;28;20547;-33
2023/07/03 17:42:59;;;;;;;19.05;3.58;;;22.40;71.00;;;;;;10449787;28;20036;-35
2023/07/03 17:48:00;;;;;;;19.38;3.03;;;21.70;69.40;;;;;;10454004;28;20446;-37
2023/07/03 17:53:04;;;;;;;26.42;3.50;;;21.70;70.10;;;;;;10459344;28;20110;-37
2023/07/03 17:58:05;;;;;;;24.38;3.88;;;20.40;82.50;;;;;;10453252;28;20106;-35
2023/07/03 18:03:08;;;;;;;24.95;4.55;;;19.90;86.50;;;;;;10450386;28;20041;-34
2023/07/03 18:08:12;;;;;;;34.65;4.03;;;20.10;85.30;;;;;;10452509;28;20508;-34
2023/07/03 18:13:14;;;;;;;26.27;4.95;;;19.30;94.20;;;;;;10449646;28;20554;-34
2023/07/03 18:18:16;;;;;;;34.88;5.15;;;18.70;98.00;;;;;;10445253;28;20061;-36
2023/07/03 18:23:19;;;;;;;21.35;3.13;;;18.00;99.90;;;;;;10449759;28;20056;-37
2023/07/03 18:28:21;;;;;;;32.35;5.03;;;18.60;99.70;;;;;;10455757;28;20055;-33
2023/07/03 18:33:23;;;;;;;32.85;3.88;;;18.80;99.90;;;;;;10442706;28;20059;-36
2023/07/03 18:38:29;;;;;;;29.23;3.05;;;18.60;99.80;;;;;;10446562;28;20048;-37
2023/07/03 18:43:31;;;;;;;16.60;3.28;;;17.70;99.90;;;;;;10450870;28;20037;-31
2023/07/03 18:48:33;;;;;;;;;;;18.20;99.90;;;;;;10442407;28;20135;-39
2023/07/03 18:53:36;;;;;;;13.30;2.15;;;18.00;99.90;;;;;;10448762;28;20018;-37
2023/07/03 18:58:39;;;;;;;29.60;5.30;;;18.20;99.90;;;;;;10435779;28;20102;-36
2023/07/03 19:03:41;;;;;;;24.33;3.58;;;17.90;99.90;;;;;;10447789;28;20462;-41
2023/07/03 19:08:44;;;;;;;25.80;4.47;;;18.20;99.90;;;;;;10451148;28;20044;-39
2023/07/03 19:13:46;;;;;;;27.42;4.90;;;18.10;99.90;;;;;;10444775;28;20114;-38
2023/07/03 19:18:48;;;;;;;31.10;4.90;;;17.90;99.90;;;;;;10445753;28;20132;-37
2023/07/03 19:23:52;;;;;;;22.25;3.53;;;17.50;99.90;;;;;;10440200;28;20068;-38
2023/07/03 19:28:54;;;;;;;29.75;3.85;;;18.60;99.90;;;;;;10437888;28;20469;-36
2023/07/03 19:33:59;;;;;;;22.95;3.30;;;17.80;99.90;;;;;;10440013;28;20068;-33
2023/07/03 19:39:03;;;;;;;16.13;3.25;;;17.60;99.90;;;;;;10443407;28;20041;-35
2023/07/03 19:44:05;;;;;;;19.48;4.05;;;17.70;99.90;;;;;;10445142;28;20468;-36
2023/07/03 19:49:06;;;;;;;24.58;4.28;;;18.10;99.90;;;;;;10443492;28;20154;-41
2023/07/03 19:54:11;;;;;;;20.05;4.18;;;18.20;99.90;;;;;;10445488;28;20068;-36
2023/07/03 19:59:15;;;;;;;33.42;5.32;;;17.50;99.90;;;;;;10461150;28;20071;-39
2023/07/03 20:04:17;;;;;;;14.35;2.55;;;17.90;99.90;;;;;;10449139;28;20052;-32
2023/07/03 20:09:20;;;;;;;13.27;1.83;;;17.00;99.90;;;;;;10444871;28;20520;-32
2023/07/03 20:14:22;;;;;;;9.38;2.03;;;16.20;99.90;;;;;;10447636;28;20577;-32
2023/07/03 20:19:24;;;;;;;10.85;2.63;;;16.30;99.90;;;;;;10453974;28;20067;-34
2023/07/03 20:24:27;;;;;;;12.88;2.22;;;18.20;98.50;;;;;;10445717;28;20047;-31
2023/07/03 20:29:29;;;;;;;12.60;2.25;;;19.20;95.50;;;;;;10448175;28;20148;-36
2023/07/03 20:34:31;;;;;;;12.75;2.78;;;18.00;99.90;;;;;;10461141;28;20076;-32
2023/07/03 20:39:34;;;;;;;14.52;2.55;;;18.90;96.50;;;;;;10451785;28;20127;-37
2023/07/03 20:44:36;;;;;;;17.35;2.47;;;18.30;97.50;;;;;;10463646;28;20492;-31
2023/07/03 20:49:39;;;;;;;15.18;2.13;;;17.60;99.90;;;;;;10462066;28;20041;-32
2023/07/03 20:54:53;;;;;;;9.75;2.22;;;16.10;99.90;;;;;;10445171;28;20068;-33
2023/07/03 20:59:55;;;;;;;11.93;1.80;;;17.50;99.90;;;;;;10461632;28;20516;-33
2023/07/03 21:04:57;;;;;;;12.07;2.00;;;17.10;99.90;;;;;;10463114;28;20044;-31
2023/07/03 21:10:03;;;;;;;12.13;2.10;;;17.70;98.80;;;;;;10453593;28;20139;-34
2023/07/03 21:15:08;;;;;;;13.85;2.28;;;17.70;99.90;;;;;;10457129;28;20064;-38
2023/07/03 21:20:11;;;;;;;15.23;2.45;;;18.00;99.00;;;;;;10458935;28;20056;-39
2023/07/03 21:25:14;;;;;;;17.77;3.50;;;17.70;99.90;;;;;;10457960;28;20052;-34
2023/07/03 21:30:16;;;;;;;14.10;3.00;;;17.90;99.90;;;;;;10452252;28;20179;-32
2023/07/03 21:35:18;;;;;;;29.92;3.85;;;18.30;96.50;;;;;;10465972;28;20170;-34
2023/07/03 21:40:21;;;;;;;19.00;3.97;;;18.00;99.90;;;;;;10469877;28;20147;-32
2023/07/03 21:45:27;;;;;;;23.10;3.72;;;17.80;99.70;;;;;;10442023;28;20055;-33
2023/07/03 21:50:29;;;;;;;13.38;3.80;;;17.90;98.10;;;;;;10447515;28;20111;-33
2023/07/03 21:55:32;;;;;;;16.25;3.10;;;18.30;98.20;;;;;;10460855;28;20113;-37
2023/07/03 22:00:34;;;;;;;14.57;2.97;;;17.80;99.60;;;;;;10437841;28;20047;-34
2023/07/03 22:05:35;;;;;;;25.63;3.28;;;18.00;98.10;;;;;;10450329;28;20048;-40
2023/07/03 22:10:39;;;;;;;10.27;2.22;;;18.40;98.00;;;;;;10464747;28;20119;-35
2023/07/03 22:15:41;;;;;;;14.10;2.80;;;17.50;98.60;;;;;;10449021;28;20135;-36
2023/07/03 22:20:43;;;;;;;11.88;2.20;;;18.00;99.50;;;;;;10459748;28;20183;-34
2023/07/03 22:25:46;;;;;;;11.80;1.75;;;17.80;99.50;;;;;;10456248;28;20076;-35
2023/07/03 22:30:48;;;;;;;12.85;2.42;;;18.00;98.00;;;;;;10453328;28;20527;-35
2023/07/03 22:35:52;;;;;;;13.90;2.15;;;18.50;95.60;;;;;;10453780;28;20668;-38
2023/07/03 22:40:55;;;;;;;13.30;2.33;;;18.50;93.80;;;;;;10453777;28;20055;-35
2023/07/03 22:46:01;;;;;;;6.13;1.50;;;18.30;95.50;;;;;;10473210;28;20090;-35
2023/07/03 22:51:05;;;;;;;15.00;1.60;;;18.30;95.30;;;;;;10477474;28;20049;-35
2023/07/03 22:56:09;;;;;;;11.05;2.10;;;17.90;95.70;;;;;;10469246;28;20059;-33
2023/07/03 23:01:12;;;;;;;15.68;1.95;;;17.90;95.80;;;;;;10466287;28;20114;-40
2023/07/03 23:06:14;;;;;;;9.18;1.65;;;18.00;95.20;;;;;;10457780;28;20438;-37
2023/07/03 23:11:18;;;;;;;8.98;2.38;;;17.50;97.50;;;;;;10449072;28;20140;-37
2023/07/03 23:16:19;;;;;;;4.70;1.27;;;18.80;91.20;;;;;;10445669;28;20106;-33
2023/07/03 23:21:21;;;;;;;7.95;1.70;;;18.40;93.50;;;;;;10460867;28;20099;-38
2023/07/03 23:26:24;;;;;;;5.85;1.50;;;18.70;90.70;;;;;;10440684;28;20084;-36
2023/07/03 23:31:28;;;;;;;11.88;3.25;;;18.20;93.20;;;;;;10462743;28;20718;-35
2023/07/03 23:36:30;;;;;;;14.20;2.15;;;17.60;97.40;;;;;;10477372;28;20056;-32
2023/07/03 23:41:36;;;;;;;10.85;2.17;;;16.40;99.90;;;;;;10452751;28;20436;-35
2023/07/03 23:46:38;;;;;;;13.18;2.42;;;16.30;99.90;;;;;;10455360;28;20442;-33
2023/07/03 23:51:40;;;;;;;6.83;1.70;;;16.70;99.90;;;;;;10454859;28;20052;-33
2023/07/03 23:56:43;;;;;;;10.52;1.98;;;16.70;99.90;;;;;;10457866;28;21024;-32
